sensor_id;sensor_type;location;lat;lon;timestamp;P1;durP1;ratioP1;P2;durP2;ratioP2
72369;SDS011;60343;-32.030;115.880;2022-07-29T00:01:21;9.80;;;0.93;;
72369;SDS011;60343;-32.030;115.880;2022-07-29T00:03:49;8.98;;;0.88;;
72369;SDS011;60343;-32.030;115.880;2022-07-29T00:06:17;11.40;;;1.20;;
72369;SDS011;60343;-32.030;115.880;2022-07-29T00:08:44;12.88;;;1.27;;
72369;SDS011;60343;-32.030;115.880;2022-07-29T00:11:12;11.90;;;1.13;;
72369;SDS011;60343;-32.030;115.880;2022-07-29T00:13:40;8.77;;;1.10;;
72369;SDS011;60343;-32.030;115.880;2022-07-29T00:16:13;12.25;;;1.60;;
72369;SDS011;60343;-32.030;115.880;2022-07-29T00:18:41;13.10;;;1.50;;
72369;SDS011;60343;-32.030;115.880;2022-07-29T00:21:09;16.65;;;1.52;;
72369;SDS011;60343;-32.030;115.880;2022-07-29T00:23:37;18.23;;;2.20;;
72369;SDS011;60343;-32.030;115.880;2022-07-29T00:26:04;19.25;;;2.20;;
72369;SDS011;60343;-32.030;115.880;2022-07-29T00:28:32;20.50;;;1.88;;
72369;SDS011;60343;-32.030;115.880;2022-07-29T00:31:00;19.13;;;2.00;;
72369;SDS011;60343;-32.030;115.880;2022-07-29T00:33:34;23.55;;;2.20;;
72369;SDS011;60343;-32.030;115.880;2022-07-29T00:36:01;18.42;;;2.22;;
72369;SDS011;60343;-32.030;115.880;2022-07-29T00:38:29;18.88;;;2.20;;
72369;SDS011;60343;-32.030;115.880;2022-07-29T00:40:57;31.05;;;2.90;;
72369;SDS011;60343;-32.030;115.880;2022-07-29T00:43:24;16.90;;;1.92;;
72369;SDS011;60343;-32.030;115.880;2022-07-29T00:45:52;16.60;;;2.05;;
72369;SDS011;60343;-32.030;115.880;2022-07-29T00:48:20;15.57;;;2.10;;
72369;SDS011;60343;-32.030;115.880;2022-07-29T00:50:53;21.77;;;2.33;;
72369;SDS011;60343;-32.030;115.880;2022-07-29T00:53:22;19.38;;;2.03;;
72369;SDS011;60343;-32.030;115.880;2022-07-29T00:55:51;22.90;;;2.13;;
72369;SDS011;60343;-32.030;115.880;2022-07-29T00:58:20;23.02;;;2.30;;
72369;SDS011;60343;-32.030;115.880;2022-07-29T01:00:49;15.40;;;2.50;;
72369;SDS011;60343;-32.030;115.880;2022-07-29T01:03:17;26.75;;;2.65;;
72369;SDS011;60343;-32.030;115.880;2022-07-29T01:05:45;17.58;;;1.85;;
72369;SDS011;60343;-32.030;115.880;2022-07-29T01:08:18;17.88;;;2.38;;
72369;SDS011;60343;-32.030;115.880;2022-07-29T01:10:49;24.15;;;2.15;;
72369;SDS011;60343;-32.030;115.880;2022-07-29T01:13:17;19.90;;;3.45;;
72369;SDS011;60343;-32.030;115.880;2022-07-29T01:15:46;20.35;;;2.65;;
72369;SDS011;60343;-32.030;115.880;2022-07-29T01:21:02;22.45;;;2.25;;
72369;SDS011;60343;-32.030;115.880;2022-07-29T01:26:44;21.23;;;2.92;;
72369;SDS011;60343;-32.030;115.880;2022-07-29T01:29:43;24.50;;;3.05;;
72369;SDS011;60343;-32.030;115.880;2022-07-29T01:32:15;23.58;;;2.80;;
72369;SDS011;60343;-32.030;115.880;2022-07-29T01:34:48;25.30;;;2.72;;
72369;SDS011;60343;-32.030;115.880;2022-07-29T01:37:19;17.65;;;2.35;;
72369;SDS011;60343;-32.030;115.880;2022-07-29T01:39:51;18.45;;;2.78;;
72369;SDS011;60343;-32.030;115.880;2022-07-29T01:42:26;17.35;;;2.83;;
72369;SDS011;60343;-32.030;115.880;2022-07-29T01:45:10;20.60;;;2.33;;
72369;SDS011;60343;-32.030;115.880;2022-07-29T01:47:41;22.02;;;2.30;;
72369;SDS011;60343;-32.030;115.880;2022-07-29T01:50:13;18.88;;;2.47;;
72369;SDS011;60343;-32.030;115.880;2022-07-29T01:52:43;22.17;;;2.20;;
72369;SDS011;60343;-32.030;115.880;2022-07-29T01:55:23;20.80;;;1.88;;
72369;SDS011;60343;-32.030;115.880;2022-07-29T01:57:54;16.25;;;1.92;;
72369;SDS011;60343;-32.030;115.880;2022-07-29T02:00:31;13.35;;;1.88;;
72369;SDS011;60343;-32.030;115.880;2022-07-29T02:03:01;21.35;;;1.98;;
72369;SDS011;60343;-32.030;115.880;2022-07-29T02:05:31;22.80;;;2.60;;
72369;SDS011;60343;-32.030;115.880;2022-07-29T02:08:00;11.68;;;1.90;;
72369;SDS011;60343;-32.030;115.880;2022-07-29T02:10:31;18.70;;;1.92;;
72369;SDS011;60343;-32.030;115.880;2022-07-29T02:12:59;17.50;;;1.77;;
72369;SDS011;60343;-32.030;115.880;2022-07-29T02:15:35;16.95;;;1.80;;
72369;SDS011;60343;-32.030;115.880;2022-07-29T02:18:04;19.13;;;1.80;;
72369;SDS011;60343;-32.030;115.880;2022-07-29T02:20:35;18.67;;;1.70;;
72369;SDS011;60343;-32.030;115.880;2022-07-29T02:23:03;13.10;;;1.67;;
72369;SDS011;60343;-32.030;115.880;2022-07-29T02:25:33;14.23;;;1.63;;
72369;SDS011;60343;-32.030;115.880;2022-07-29T02:28:02;20.35;;;2.08;;
72369;SDS011;60343;-32.030;115.880;2022-07-29T02:30:36;18.00;;;2.47;;
72369;SDS011;60343;-32.030;115.880;2022-07-29T02:33:08;15.80;;;1.95;;
72369;SDS011;60343;-32.030;115.880;2022-07-29T02:35:38;21.35;;;2.17;;
72369;SDS011;60343;-32.030;115.880;2022-07-29T02:38:07;21.35;;;2.22;;
72369;SDS011;60343;-32.030;115.880;2022-07-29T02:40:38;19.10;;;2.00;;
72369;SDS011;60343;-32.030;115.880;2022-07-29T02:43:08;18.15;;;1.95;;
72369;SDS011;60343;-32.030;115.880;2022-07-29T02:45:43;20.48;;;2.38;;
72369;SDS011;60343;-32.030;115.880;2022-07-29T02:48:13;20.73;;;2.25;;
72369;SDS011;60343;-32.030;115.880;2022-07-29T02:50:44;20.05;;;2.95;;
72369;SDS011;60343;-32.030;115.880;2022-07-29T02:53:18;16.50;;;1.75;;
72369;SDS011;60343;-32.030;115.880;2022-07-29T02:55:48;19.25;;;1.85;;
72369;SDS011;60343;-32.030;115.880;2022-07-29T02:58:23;16.67;;;1.77;;
72369;SDS011;60343;-32.030;115.880;2022-07-29T03:00:59;16.33;;;2.03;;
72369;SDS011;60343;-32.030;115.880;2022-07-29T03:03:29;16.13;;;1.98;;
72369;SDS011;60343;-32.030;115.880;2022-07-29T03:06:00;19.10;;;1.98;;
72369;SDS011;60343;-32.030;115.880;2022-07-29T03:08:29;17.10;;;1.92;;
72369;SDS011;60343;-32.030;115.880;2022-07-29T03:10:58;21.20;;;2.45;;
72369;SDS011;60343;-32.030;115.880;2022-07-29T03:13:26;16.63;;;1.98;;
72369;SDS011;60343;-32.030;115.880;2022-07-29T03:16:01;17.17;;;2.55;;
72369;SDS011;60343;-32.030;115.880;2022-07-29T03:18:29;12.85;;;1.52;;
72369;SDS011;60343;-32.030;115.880;2022-07-29T03:20:58;16.85;;;1.90;;
72369;SDS011;60343;-32.030;115.880;2022-07-29T03:23:25;18.75;;;1.80;;
72369;SDS011;60343;-32.030;115.880;2022-07-29T03:25:53;15.50;;;1.70;;
72369;SDS011;60343;-32.030;115.880;2022-07-29T03:28:21;20.67;;;2.10;;
72369;SDS011;60343;-32.030;115.880;2022-07-29T03:30:49;17.63;;;1.85;;
72369;SDS011;60343;-32.030;115.880;2022-07-29T03:33:23;11.98;;;1.52;;
72369;SDS011;60343;-32.030;115.880;2022-07-29T03:35:50;18.13;;;2.20;;
72369;SDS011;60343;-32.030;115.880;2022-07-29T03:38:18;15.48;;;1.63;;
72369;SDS011;60343;-32.030;115.880;2022-07-29T03:40:48;16.17;;;2.40;;
72369;SDS011;60343;-32.030;115.880;2022-07-29T03:43:19;16.90;;;1.95;;
72369;SDS011;60343;-32.030;115.880;2022-07-29T03:45:49;17.35;;;2.13;;
72369;SDS011;60343;-32.030;115.880;2022-07-29T03:48:26;17.30;;;2.28;;
72369;SDS011;60343;-32.030;115.880;2022-07-29T03:50:54;11.07;;;1.65;;
72369;SDS011;60343;-32.030;115.880;2022-07-29T03:53:22;14.80;;;1.50;;
72369;SDS011;60343;-32.030;115.880;2022-07-29T03:55:55;19.15;;;1.80;;
72369;SDS011;60343;-32.030;115.880;2022-07-29T03:58:25;11.68;;;2.30;;
72369;SDS011;60343;-32.030;115.880;2022-07-29T04:00:54;13.48;;;2.03;;
72369;SDS011;60343;-32.030;115.880;2022-07-29T04:03:28;16.63;;;2.22;;
72369;SDS011;60343;-32.030;115.880;2022-07-29T04:05:59;12.02;;;1.58;;
72369;SDS011;60343;-32.030;115.880;2022-07-29T04:08:28;15.45;;;1.67;;
72369;SDS011;60343;-32.030;115.880;2022-07-29T04:10:56;14.25;;;2.00;;
72369;SDS011;60343;-32.030;115.880;2022-07-29T04:13:24;12.35;;;1.67;;
72369;SDS011;60343;-32.030;115.880;2022-07-29T04:15:52;12.25;;;1.40;;
72369;SDS011;60343;-32.030;115.880;2022-07-29T04:18:20;17.23;;;2.55;;
72369;SDS011;60343;-32.030;115.880;2022-07-29T04:20:53;12.43;;;1.90;;
72369;SDS011;60343;-32.030;115.880;2022-07-29T04:23:21;13.73;;;1.50;;
72369;SDS011;60343;-32.030;115.880;2022-07-29T04:25:49;14.20;;;1.70;;
72369;SDS011;60343;-32.030;115.880;2022-07-29T04:28:16;11.10;;;1.70;;
72369;SDS011;60343;-32.030;115.880;2022-07-29T04:30:44;21.08;;;3.22;;
72369;SDS011;60343;-32.030;115.880;2022-07-29T04:33:12;12.25;;;1.25;;
72369;SDS011;60343;-32.030;115.880;2022-07-29T04:35:39;15.48;;;1.70;;
72369;SDS011;60343;-32.030;115.880;2022-07-29T04:38:13;11.88;;;1.60;;
72369;SDS011;60343;-32.030;115.880;2022-07-29T04:40:40;17.08;;;1.80;;
72369;SDS011;60343;-32.030;115.880;2022-07-29T04:43:08;16.77;;;2.03;;
72369;SDS011;60343;-32.030;115.880;2022-07-29T04:45:36;16.95;;;1.65;;
72369;SDS011;60343;-32.030;115.880;2022-07-29T04:48:04;17.85;;;1.65;;
72369;SDS011;60343;-32.030;115.880;2022-07-29T04:50:32;16.95;;;1.77;;
72369;SDS011;60343;-32.030;115.880;2022-07-29T04:52:59;10.85;;;1.23;;
72369;SDS011;60343;-32.030;115.880;2022-07-29T04:55:33;15.77;;;1.52;;
72369;SDS011;60343;-32.030;115.880;2022-07-29T04:58:00;13.80;;;1.42;;
72369;SDS011;60343;-32.030;115.880;2022-07-29T05:00:28;18.00;;;1.63;;
72369;SDS011;60343;-32.030;115.880;2022-07-29T05:02:56;14.43;;;1.33;;
72369;SDS011;60343;-32.030;115.880;2022-07-29T05:05:24;13.65;;;1.42;;
72369;SDS011;60343;-32.030;115.880;2022-07-29T05:07:51;18.48;;;1.45;;
72369;SDS011;60343;-32.030;115.880;2022-07-29T05:10:19;14.90;;;1.55;;
72369;SDS011;60343;-32.030;115.880;2022-07-29T05:12:52;11.93;;;1.38;;
72369;SDS011;60343;-32.030;115.880;2022-07-29T05:15:20;14.82;;;1.33;;
72369;SDS011;60343;-32.030;115.880;2022-07-29T05:17:47;13.05;;;1.73;;
72369;SDS011;60343;-32.030;115.880;2022-07-29T05:20:15;13.10;;;1.52;;
72369;SDS011;60343;-32.030;115.880;2022-07-29T05:22:43;14.18;;;1.70;;
72369;SDS011;60343;-32.030;115.880;2022-07-29T05:25:11;15.75;;;2.22;;
72369;SDS011;60343;-32.030;115.880;2022-07-29T05:27:38;12.10;;;1.40;;
72369;SDS011;60343;-32.030;115.880;2022-07-29T05:30:12;9.57;;;1.35;;
72369;SDS011;60343;-32.030;115.880;2022-07-29T05:32:40;14.90;;;1.52;;
72369;SDS011;60343;-32.030;115.880;2022-07-29T05:35:08;10.75;;;1.42;;
72369;SDS011;60343;-32.030;115.880;2022-07-29T05:37:36;13.65;;;1.65;;
72369;SDS011;60343;-32.030;115.880;2022-07-29T05:40:04;13.18;;;2.20;;
72369;SDS011;60343;-32.030;115.880;2022-07-29T05:42:33;10.43;;;1.35;;
72369;SDS011;60343;-32.030;115.880;2022-07-29T05:45:01;9.68;;;1.50;;
72369;SDS011;60343;-32.030;115.880;2022-07-29T05:47:35;10.45;;;1.20;;
72369;SDS011;60343;-32.030;115.880;2022-07-29T05:50:03;11.57;;;1.73;;
72369;SDS011;60343;-32.030;115.880;2022-07-29T05:52:31;12.18;;;1.48;;
72369;SDS011;60343;-32.030;115.880;2022-07-29T05:54:59;10.00;;;1.50;;
72369;SDS011;60343;-32.030;115.880;2022-07-29T05:57:26;10.55;;;1.48;;
72369;SDS011;60343;-32.030;115.880;2022-07-29T05:59:54;12.52;;;1.60;;
72369;SDS011;60343;-32.030;115.880;2022-07-29T06:02:22;12.27;;;1.30;;
72369;SDS011;60343;-32.030;115.880;2022-07-29T06:04:55;11.98;;;1.58;;
72369;SDS011;60343;-32.030;115.880;2022-07-29T06:07:23;12.13;;;1.58;;
72369;SDS011;60343;-32.030;115.880;2022-07-29T06:09:50;9.43;;;1.33;;
72369;SDS011;60343;-32.030;115.880;2022-07-29T06:12:18;11.45;;;1.25;;
72369;SDS011;60343;-32.030;115.880;2022-07-29T06:14:46;10.60;;;1.10;;
72369;SDS011;60343;-32.030;115.880;2022-07-29T06:17:14;12.23;;;1.50;;
72369;SDS011;60343;-32.030;115.880;2022-07-29T06:19:45;10.30;;;1.27;;
72369;SDS011;60343;-32.030;115.880;2022-07-29T06:22:18;10.18;;;1.50;;
72369;SDS011;60343;-32.030;115.880;2022-07-29T06:24:45;12.93;;;1.73;;
72369;SDS011;60343;-32.030;115.880;2022-07-29T06:27:13;11.80;;;1.25;;
72369;SDS011;60343;-32.030;115.880;2022-07-29T06:29:41;9.18;;;1.38;;
72369;SDS011;60343;-32.030;115.880;2022-07-29T06:32:09;16.15;;;1.42;;
72369;SDS011;60343;-32.030;115.880;2022-07-29T06:34:36;11.02;;;1.38;;
72369;SDS011;60343;-32.030;115.880;2022-07-29T06:37:07;7.43;;;1.13;;
72369;SDS011;60343;-32.030;115.880;2022-07-29T06:39:40;11.02;;;1.38;;
72369;SDS011;60343;-32.030;115.880;2022-07-29T06:42:08;15.07;;;1.48;;
72369;SDS011;60343;-32.030;115.880;2022-07-29T06:44:36;18.10;;;1.58;;
72369;SDS011;60343;-32.030;115.880;2022-07-29T06:47:04;14.15;;;1.60;;
72369;SDS011;60343;-32.030;115.880;2022-07-29T06:49:31;8.77;;;1.35;;
72369;SDS011;60343;-32.030;115.880;2022-07-29T06:51:59;14.65;;;1.33;;
72369;SDS011;60343;-32.030;115.880;2022-07-29T06:54:27;16.58;;;1.48;;
72369;SDS011;60343;-32.030;115.880;2022-07-29T06:57:00;15.20;;;1.33;;
72369;SDS011;60343;-32.030;115.880;2022-07-29T06:59:28;11.30;;;1.30;;
72369;SDS011;60343;-32.030;115.880;2022-07-29T07:01:55;14.25;;;2.13;;
72369;SDS011;60343;-32.030;115.880;2022-07-29T07:04:23;17.95;;;1.50;;
72369;SDS011;60343;-32.030;115.880;2022-07-29T07:06:51;16.17;;;1.42;;
72369;SDS011;60343;-32.030;115.880;2022-07-29T07:09:19;18.02;;;1.40;;
72369;SDS011;60343;-32.030;115.880;2022-07-29T07:11:46;15.60;;;1.80;;
72369;SDS011;60343;-32.030;115.880;2022-07-29T07:14:21;7.88;;;1.10;;
72369;SDS011;60343;-32.030;115.880;2022-07-29T07:16:48;10.63;;;1.10;;
72369;SDS011;60343;-32.030;115.880;2022-07-29T07:19:16;12.10;;;1.38;;
72369;SDS011;60343;-32.030;115.880;2022-07-29T07:21:44;9.45;;;1.05;;
72369;SDS011;60343;-32.030;115.880;2022-07-29T07:24:12;15.48;;;1.33;;
72369;SDS011;60343;-32.030;115.880;2022-07-29T07:26:40;10.50;;;1.23;;
72369;SDS011;60343;-32.030;115.880;2022-07-29T07:29:07;6.20;;;0.60;;
72369;SDS011;60343;-32.030;115.880;2022-07-29T07:31:41;14.07;;;1.65;;
72369;SDS011;60343;-32.030;115.880;2022-07-29T07:34:09;12.00;;;0.88;;
72369;SDS011;60343;-32.030;115.880;2022-07-29T07:36:39;16.88;;;1.80;;
72369;SDS011;60343;-32.030;115.880;2022-07-29T07:39:07;10.40;;;0.93;;
72369;SDS011;60343;-32.030;115.880;2022-07-29T07:41:34;10.00;;;1.15;;
72369;SDS011;60343;-32.030;115.880;2022-07-29T07:44:02;10.95;;;1.20;;
72369;SDS011;60343;-32.030;115.880;2022-07-29T07:46:30;15.90;;;1.38;;
72369;SDS011;60343;-32.030;115.880;2022-07-29T07:49:03;10.25;;;1.27;;
72369;SDS011;60343;-32.030;115.880;2022-07-29T07:51:31;12.68;;;1.58;;
72369;SDS011;60343;-32.030;115.880;2022-07-29T07:53:59;14.50;;;1.75;;
72369;SDS011;60343;-32.030;115.880;2022-07-29T07:56:26;13.70;;;1.80;;
72369;SDS011;60343;-32.030;115.880;2022-07-29T07:58:54;13.98;;;1.70;;
72369;SDS011;60343;-32.030;115.880;2022-07-29T08:01:24;11.43;;;1.40;;
72369;SDS011;60343;-32.030;115.880;2022-07-29T08:03:52;10.85;;;1.60;;
72369;SDS011;60343;-32.030;115.880;2022-07-29T08:06:25;12.00;;;1.20;;
72369;SDS011;60343;-32.030;115.880;2022-07-29T08:08:53;13.82;;;1.90;;
72369;SDS011;60343;-32.030;115.880;2022-07-29T08:11:21;14.43;;;1.73;;
72369;SDS011;60343;-32.030;115.880;2022-07-29T08:13:48;8.45;;;1.13;;
72369;SDS011;60343;-32.030;115.880;2022-07-29T08:16:16;6.18;;;0.70;;
72369;SDS011;60343;-32.030;115.880;2022-07-29T08:18:44;12.30;;;1.35;;
72369;SDS011;60343;-32.030;115.880;2022-07-29T08:21:12;9.05;;;1.10;;
72369;SDS011;60343;-32.030;115.880;2022-07-29T08:23:46;10.82;;;1.27;;
72369;SDS011;60343;-32.030;115.880;2022-07-29T08:26:14;10.77;;;1.65;;
72369;SDS011;60343;-32.030;115.880;2022-07-29T08:28:42;13.40;;;1.40;;
72369;SDS011;60343;-32.030;115.880;2022-07-29T08:31:10;11.75;;;1.40;;
72369;SDS011;60343;-32.030;115.880;2022-07-29T08:33:38;13.35;;;1.42;;
72369;SDS011;60343;-32.030;115.880;2022-07-29T08:36:09;13.63;;;1.50;;
72369;SDS011;60343;-32.030;115.880;2022-07-29T08:38:37;10.43;;;1.42;;
72369;SDS011;60343;-32.030;115.880;2022-07-29T08:41:10;12.68;;;1.40;;
72369;SDS011;60343;-32.030;115.880;2022-07-29T08:43:40;6.93;;;0.93;;
72369;SDS011;60343;-32.030;115.880;2022-07-29T08:46:07;10.73;;;1.90;;
72369;SDS011;60343;-32.030;115.880;2022-07-29T08:48:35;12.43;;;1.17;;
72369;SDS011;60343;-32.030;115.880;2022-07-29T08:51:04;11.07;;;1.50;;
72369;SDS011;60343;-32.030;115.880;2022-07-29T08:53:34;10.50;;;1.10;;
72369;SDS011;60343;-32.030;115.880;2022-07-29T08:56:02;12.82;;;1.35;;
72369;SDS011;60343;-32.030;115.880;2022-07-29T08:58:36;13.50;;;1.52;;
72369;SDS011;60343;-32.030;115.880;2022-07-29T09:01:04;11.10;;;1.67;;
72369;SDS011;60343;-32.030;115.880;2022-07-29T09:03:32;13.52;;;1.20;;
72369;SDS011;60343;-32.030;115.880;2022-07-29T09:06:02;9.18;;;1.30;;
72369;SDS011;60343;-32.030;115.880;2022-07-29T09:08:31;10.98;;;1.13;;
72369;SDS011;60343;-32.030;115.880;2022-07-29T09:11:00;12.98;;;1.50;;
72369;SDS011;60343;-32.030;115.880;2022-07-29T09:13:28;9.93;;;1.35;;
72369;SDS011;60343;-32.030;115.880;2022-07-29T09:16:01;5.25;;;0.95;;
72369;SDS011;60343;-32.030;115.880;2022-07-29T09:18:35;8.73;;;0.88;;
72369;SDS011;60343;-32.030;115.880;2022-07-29T09:21:04;10.80;;;1.02;;
72369;SDS011;60343;-32.030;115.880;2022-07-29T09:23:32;12.27;;;1.38;;
72369;SDS011;60343;-32.030;115.880;2022-07-29T09:26:00;5.78;;;1.00;;
72369;SDS011;60343;-32.030;115.880;2022-07-29T09:28:32;12.60;;;1.10;;
72369;SDS011;60343;-32.030;115.880;2022-07-29T09:31:05;12.07;;;1.50;;
72369;SDS011;60343;-32.030;115.880;2022-07-29T09:33:33;14.25;;;1.40;;
72369;SDS011;60343;-32.030;115.880;2022-07-29T09:36:03;12.30;;;1.40;;
72369;SDS011;60343;-32.030;115.880;2022-07-29T09:38:31;15.35;;;1.42;;
72369;SDS011;60343;-32.030;115.880;2022-07-29T09:41:00;13.75;;;1.20;;
72369;SDS011;60343;-32.030;115.880;2022-07-29T09:43:28;12.63;;;1.27;;
72369;SDS011;60343;-32.030;115.880;2022-07-29T09:45:59;13.55;;;1.60;;
72369;SDS011;60343;-32.030;115.880;2022-07-29T09:48:43;13.32;;;1.60;;
72369;SDS011;60343;-32.030;115.880;2022-07-29T09:51:31;10.93;;;1.65;;
72369;SDS011;60343;-32.030;115.880;2022-07-29T09:53:59;15.88;;;1.52;;
72369;SDS011;60343;-32.030;115.880;2022-07-29T09:56:38;13.65;;;1.20;;
72369;SDS011;60343;-32.030;115.880;2022-07-29T09:59:06;9.15;;;1.20;;
72369;SDS011;60343;-32.030;115.880;2022-07-29T10:01:40;11.82;;;1.23;;
72369;SDS011;60343;-32.030;115.880;2022-07-29T10:04:08;8.20;;;1.10;;
72369;SDS011;60343;-32.030;115.880;2022-07-29T10:06:37;8.15;;;1.08;;
72369;SDS011;60343;-32.030;115.880;2022-07-29T10:09:22;9.90;;;1.60;;
72369;SDS011;60343;-32.030;115.880;2022-07-29T10:12:02;12.95;;;1.38;;
72369;SDS011;60343;-32.030;115.880;2022-07-29T10:14:37;8.00;;;1.33;;
72369;SDS011;60343;-32.030;115.880;2022-07-29T10:17:10;9.13;;;1.27;;
72369;SDS011;60343;-32.030;115.880;2022-07-29T10:19:38;13.18;;;1.38;;
72369;SDS011;60343;-32.030;115.880;2022-07-29T10:22:07;11.50;;;1.00;;
72369;SDS011;60343;-32.030;115.880;2022-07-29T10:24:36;9.82;;;1.05;;
72369;SDS011;60343;-32.030;115.880;2022-07-29T10:27:05;8.88;;;0.93;;
72369;SDS011;60343;-32.030;115.880;2022-07-29T10:29:33;10.18;;;1.00;;
72369;SDS011;60343;-32.030;115.880;2022-07-29T10:38:02;9.75;;;1.67;;
72369;SDS011;60343;-32.030;115.880;2022-07-29T10:40:51;6.43;;;0.90;;
72369;SDS011;60343;-32.030;115.880;2022-07-29T10:43:28;9.85;;;1.02;;
72369;SDS011;60343;-32.030;115.880;2022-07-29T10:45:59;12.13;;;1.10;;
72369;SDS011;60343;-32.030;115.880;2022-07-29T10:48:33;7.15;;;1.10;;
72369;SDS011;60343;-32.030;115.880;2022-07-29T10:51:01;8.13;;;1.10;;
72369;SDS011;60343;-32.030;115.880;2022-07-29T10:56:46;7.53;;;1.00;;
72369;SDS011;60343;-32.030;115.880;2022-07-29T11:10:44;10.65;;;1.48;;
72369;SDS011;60343;-32.030;115.880;2022-07-29T11:30:55;9.52;;;1.00;;
72369;SDS011;60343;-32.030;115.880;2022-07-29T11:47:21;10.05;;;0.90;;
72369;SDS011;60343;-32.030;115.880;2022-07-29T11:49:50;10.27;;;0.90;;
72369;SDS011;60343;-32.030;115.880;2022-07-29T11:52:18;6.07;;;0.82;;
72369;SDS011;60343;-32.030;115.880;2022-07-29T11:54:46;6.90;;;0.80;;
72369;SDS011;60343;-32.030;115.880;2022-07-29T11:57:16;10.52;;;1.05;;
72369;SDS011;60343;-32.030;115.880;2022-07-29T11:59:45;9.65;;;1.00;;
72369;SDS011;60343;-32.030;115.880;2022-07-29T12:02:13;12.88;;;1.33;;
72369;SDS011;60343;-32.030;115.880;2022-07-29T12:04:50;7.75;;;0.68;;
72369;SDS011;60343;-32.030;115.880;2022-07-29T12:07:18;8.02;;;0.98;;
72369;SDS011;60343;-32.030;115.880;2022-07-29T12:09:52;6.65;;;0.55;;
72369;SDS011;60343;-32.030;115.880;2022-07-29T12:12:20;7.38;;;1.30;;
72369;SDS011;60343;-32.030;115.880;2022-07-29T12:14:48;7.35;;;0.85;;
72369;SDS011;60343;-32.030;115.880;2022-07-29T12:17:32;6.93;;;0.70;;
72369;SDS011;60343;-32.030;115.880;2022-07-29T12:20:00;10.07;;;0.75;;
72369;SDS011;60343;-32.030;115.880;2022-07-29T12:22:29;7.57;;;0.95;;
72369;SDS011;60343;-32.030;115.880;2022-07-29T12:25:00;6.10;;;0.70;;
72369;SDS011;60343;-32.030;115.880;2022-07-29T12:27:29;8.18;;;0.90;;
72369;SDS011;60343;-32.030;115.880;2022-07-29T12:29:57;7.85;;;1.10;;
72369;SDS011;60343;-32.030;115.880;2022-07-29T12:32:37;5.40;;;0.60;;
72369;SDS011;60343;-32.030;115.880;2022-07-29T12:35:06;6.40;;;0.80;;
72369;SDS011;60343;-32.030;115.880;2022-07-29T12:37:35;8.23;;;0.73;;
72369;SDS011;60343;-32.030;115.880;2022-07-29T12:40:04;5.38;;;0.63;;
72369;SDS011;60343;-32.030;115.880;2022-07-29T12:42:33;9.98;;;0.50;;
72369;SDS011;60343;-32.030;115.880;2022-07-29T12:45:02;8.32;;;0.90;;
72369;SDS011;60343;-32.030;115.880;2022-07-29T12:47:30;7.65;;;0.63;;
72369;SDS011;60343;-32.030;115.880;2022-07-29T12:50:16;3.85;;;0.65;;
72369;SDS011;60343;-32.030;115.880;2022-07-29T12:52:44;8.32;;;0.98;;
72369;SDS011;60343;-32.030;115.880;2022-07-29T12:55:12;7.38;;;0.70;;
72369;SDS011;60343;-32.030;115.880;2022-07-29T12:57:50;5.72;;;0.80;;
72369;SDS011;60343;-32.030;115.880;2022-07-29T13:00:21;5.50;;;0.50;;
72369;SDS011;60343;-32.030;115.880;2022-07-29T13:02:59;8.02;;;0.65;;
72369;SDS011;60343;-32.030;115.880;2022-07-29T13:05:39;7.28;;;0.95;;
72369;SDS011;60343;-32.030;115.880;2022-07-29T13:08:14;9.85;;;0.75;;
72369;SDS011;60343;-32.030;115.880;2022-07-29T13:10:43;5.65;;;0.40;;
72369;SDS011;60343;-32.030;115.880;2022-07-29T13:13:12;7.75;;;0.70;;
72369;SDS011;60343;-32.030;115.880;2022-07-29T13:15:41;4.05;;;0.68;;
72369;SDS011;60343;-32.030;115.880;2022-07-29T13:21:10;5.15;;;0.50;;
72369;SDS011;60343;-32.030;115.880;2022-07-29T13:23:38;6.88;;;0.65;;
72369;SDS011;60343;-32.030;115.880;2022-07-29T13:26:06;3.90;;;0.60;;
72369;SDS011;60343;-32.030;115.880;2022-07-29T13:28:35;11.10;;;1.27;;
72369;SDS011;60343;-32.030;115.880;2022-07-29T13:31:03;6.15;;;0.73;;
72369;SDS011;60343;-32.030;115.880;2022-07-29T13:33:37;8.20;;;1.17;;
72369;SDS011;60343;-32.030;115.880;2022-07-29T13:36:05;8.35;;;1.35;;
72369;SDS011;60343;-32.030;115.880;2022-07-29T13:38:33;4.97;;;0.52;;
72369;SDS011;60343;-32.030;115.880;2022-07-29T13:41:01;3.33;;;0.50;;
72369;SDS011;60343;-32.030;115.880;2022-07-29T13:43:28;8.88;;;1.15;;
72369;SDS011;60343;-32.030;115.880;2022-07-29T13:45:56;7.80;;;0.70;;
72369;SDS011;60343;-32.030;115.880;2022-07-29T13:48:24;10.55;;;0.80;;
72369;SDS011;60343;-32.030;115.880;2022-07-29T13:50:57;7.90;;;0.70;;
72369;SDS011;60343;-32.030;115.880;2022-07-29T13:53:25;7.97;;;1.00;;
72369;SDS011;60343;-32.030;115.880;2022-07-29T13:55:53;6.88;;;0.68;;
72369;SDS011;60343;-32.030;115.880;2022-07-29T13:58:21;8.45;;;0.80;;
72369;SDS011;60343;-32.030;115.880;2022-07-29T14:00:49;8.55;;;0.88;;
72369;SDS011;60343;-32.030;115.880;2022-07-29T14:03:17;6.85;;;0.70;;
72369;SDS011;60343;-32.030;115.880;2022-07-29T14:05:44;6.68;;;0.90;;
72369;SDS011;60343;-32.030;115.880;2022-07-29T14:08:18;8.70;;;1.00;;
72369;SDS011;60343;-32.030;115.880;2022-07-29T14:10:46;8.00;;;0.77;;
72369;SDS011;60343;-32.030;115.880;2022-07-29T14:13:13;7.35;;;0.80;;
72369;SDS011;60343;-32.030;115.880;2022-07-29T14:15:41;8.70;;;0.73;;
72369;SDS011;60343;-32.030;115.880;2022-07-29T14:18:09;5.45;;;0.73;;
72369;SDS011;60343;-32.030;115.880;2022-07-29T14:20:36;8.25;;;1.00;;
72369;SDS011;60343;-32.030;115.880;2022-07-29T14:23:04;6.82;;;0.70;;
72369;SDS011;60343;-32.030;115.880;2022-07-29T14:25:37;5.90;;;0.70;;
72369;SDS011;60343;-32.030;115.880;2022-07-29T14:28:05;13.43;;;0.77;;
72369;SDS011;60343;-32.030;115.880;2022-07-29T14:30:33;5.93;;;0.60;;
72369;SDS011;60343;-32.030;115.880;2022-07-29T14:33:01;3.65;;;0.38;;
72369;SDS011;60343;-32.030;115.880;2022-07-29T14:35:29;6.50;;;0.57;;
72369;SDS011;60343;-32.030;115.880;2022-07-29T14:37:57;10.68;;;0.60;;
72369;SDS011;60343;-32.030;115.880;2022-07-29T14:40:24;5.53;;;0.50;;
72369;SDS011;60343;-32.030;115.880;2022-07-29T14:42:58;5.32;;;0.52;;
72369;SDS011;60343;-32.030;115.880;2022-07-29T14:45:25;5.53;;;0.50;;
72369;SDS011;60343;-32.030;115.880;2022-07-29T14:47:53;7.40;;;0.47;;
72369;SDS011;60343;-32.030;115.880;2022-07-29T14:50:21;3.17;;;0.47;;
72369;SDS011;60343;-32.030;115.880;2022-07-29T14:52:49;4.35;;;0.40;;
72369;SDS011;60343;-32.030;115.880;2022-07-29T14:55:17;6.15;;;0.98;;
72369;SDS011;60343;-32.030;115.880;2022-07-29T14:57:45;7.53;;;0.95;;
72369;SDS011;60343;-32.030;115.880;2022-07-29T15:00:18;6.55;;;0.55;;
72369;SDS011;60343;-32.030;115.880;2022-07-29T15:02:46;7.00;;;1.00;;
72369;SDS011;60343;-32.030;115.880;2022-07-29T15:05:14;2.05;;;0.30;;
72369;SDS011;60343;-32.030;115.880;2022-07-29T15:07:42;4.70;;;0.40;;
72369;SDS011;60343;-32.030;115.880;2022-07-29T15:10:09;5.25;;;0.52;;
72369;SDS011;60343;-32.030;115.880;2022-07-29T15:12:37;3.08;;;0.40;;
72369;SDS011;60343;-32.030;115.880;2022-07-29T15:15:05;6.75;;;0.40;;
72369;SDS011;60343;-32.030;115.880;2022-07-29T15:17:38;4.32;;;0.40;;